Time;durP1;ratioP1;P1;durP2;ratioP2;P2;SDS_P1;SDS_P2;PMS_P1;PMS_P2;Temp;Humidity;BMP_temperature;BMP_pressure;BME280_temperature;BME280_humidity;BME280_pressure;Samples;Min_cycle;Max_cycle;Signal;HPM_P1;HPM_P2
2024/01/23 00:00:42;;;;;;;12.60;5.43;;;;;;;0.85;100.00;102988.44;2086928;28;20192;-70
2024/01/23 00:01:43;;;;;;;7.57;3.83;;;;;;;0.94;100.00;102981.09;2086423;28;20185;-70
2024/01/23 00:02:44;;;;;;;7.60;3.38;;;;;;;1.03;100.00;102987.44;2086777;28;20283;-71
2024/01/23 00:03:44;;;;;;;8.87;4.20;;;;;;;0.93;100.00;102965.84;2085700;28;20196;-71
2024/01/23 00:04:45;;;;;;;8.00;3.70;;;;;;;1.06;100.00;102986.00;2085667;28;20654;-70
2024/01/23 00:05:45;;;;;;;9.57;4.13;;;;;;;0.91;100.00;102975.44;2088602;28;20314;-70
2024/01/23 00:06:46;;;;;;;10.30;4.13;;;;;;;0.18;100.00;102879.56;2087034;28;20216;-71
2024/01/23 00:07:46;;;;;;;7.93;4.10;;;;;;;0.80;100.00;102976.81;2085799;28;20211;-70
2024/01/23 00:08:48;;;;;;;8.97;4.63;;;;;;;0.74;100.00;102972.59;2086369;28;20267;-70
2024/01/23 00:09:48;;;;;;;8.63;4.25;;;;;;;0.71;100.00;102979.50;2087180;28;20204;-70
2024/01/23 00:10:49;;;;;;;7.13;3.67;;;;;;;0.62;100.00;102973.16;2086697;28;20201;-71
2024/01/23 00:11:49;;;;;;;10.43;5.13;;;;;;;0.68;100.00;102976.56;2089014;28;20181;-71
2024/01/23 00:12:50;;;;;;;11.00;5.40;;;;;;;0.76;100.00;102984.00;2085798;28;20184;-70
2024/01/23 00:13:50;;;;;;;9.37;4.27;;;;;;;0.76;100.00;102975.81;2086609;28;20617;-71
2024/01/23 00:14:51;;;;;;;10.87;5.13;;;;;;;0.67;100.00;102964.06;2086594;28;20191;-71
2024/01/23 00:15:51;;;;;;;9.63;4.57;;;;;;;0.65;100.00;102953.44;2086763;28;20189;-71
2024/01/23 00:16:52;;;;;;;10.07;4.27;;;;;;;0.88;100.00;102968.69;2086923;28;20223;-70
2024/01/23 00:17:52;;;;;;;9.23;4.50;;;;;;;0.93;100.00;102975.97;2088823;28;20185;-71
2024/01/23 00:18:53;;;;;;;11.00;4.37;;;;;;;1.00;100.00;102974.41;2086809;28;20194;-71
2024/01/23 00:19:53;;;;;;;8.67;4.57;;;;;;;1.04;100.00;102972.66;2086420;28;20532;-71
2024/01/23 00:20:54;;;;;;;11.73;4.83;;;;;;;0.81;100.00;102934.75;2087137;28;20192;-70
2024/01/23 00:21:54;;;;;;;13.23;5.37;;;;;;;0.88;100.00;102943.34;2086175;28;20750;-71
2024/01/23 00:22:55;;;;;;;8.67;4.20;;;;;;;0.16;100.00;102828.06;2086553;28;20191;-71
2024/01/23 00:23:56;;;;;;;12.87;4.50;;;;;;;-0.03;100.00;102813.00;2088236;28;20190;-71
2024/01/23 00:24:56;;;;;;;10.77;4.30;;;;;;;1.03;100.00;102968.31;2084883;28;20289;-71
2024/01/23 00:25:57;;;;;;;8.67;4.07;;;;;;;-0.03;100.00;102827.44;2085886;28;21737;-70
2024/01/23 00:26:57;;;;;;;11.23;4.30;;;;;;;0.83;100.00;102965.28;2086781;28;20538;-71
2024/01/23 00:27:58;;;;;;;10.93;4.50;;;;;;;0.83;100.00;102959.84;2086570;28;20186;-71
2024/01/23 00:28:58;;;;;;;11.10;5.43;;;;;;;0.90;100.00;102960.19;2086842;28;20219;-70
2024/01/23 00:29:59;;;;;;;14.70;5.33;;;;;;;0.95;100.00;102968.25;2088754;28;20184;-71
2024/01/23 00:30:59;;;;;;;8.60;4.10;;;;;;;0.98;100.00;102960.25;2085562;28;20576;-71
2024/01/23 00:32:03;;;;;;;10.43;5.43;;;;;;;0.87;100.00;102936.25;2086980;28;20200;-71
2024/01/23 00:33:04;;;;;;;7.28;3.95;;;;;;;1.08;100.00;102956.47;2085698;28;20195;-71
2024/01/23 00:34:04;;;;;;;9.10;4.87;;;;;;;0.75;100.00;102904.06;2085609;28;20184;-71
2024/01/23 00:35:05;;;;;;;14.70;5.70;;;;;;;0.69;100.00;102907.22;2085797;28;20625;-71
2024/01/23 00:36:06;;;;;;;10.27;4.97;;;;;;;1.10;100.00;102955.03;2088610;28;20179;-71
2024/01/23 00:37:07;;;;;;;9.00;4.45;;;;;;;1.15;100.00;102959.56;2086002;28;20188;-71
2024/01/23 00:38:07;;;;;;;11.13;4.53;;;;;;;1.13;100.00;102957.13;2086848;28;20193;-71
2024/01/23 00:39:08;;;;;;;13.47;4.43;;;;;;;0.99;100.00;102936.50;2086875;28;20279;-70
2024/01/23 00:40:12;;;;;;;10.97;4.67;;;;;;;0.91;100.00;102939.97;2086475;28;20182;-70
2024/01/23 00:41:12;;;;;;;9.65;4.00;;;;;;;0.93;100.00;102940.47;2086419;28;20206;-71
2024/01/23 00:42:13;;;;;;;13.80;3.73;;;;;;;0.12;100.00;102826.25;2088868;28;20193;-71
2024/01/23 00:43:14;;;;;;;7.57;4.23;;;;;;;0.91;100.00;102943.50;2085680;28;20282;-71
2024/01/23 00:44:14;;;;;;;8.40;4.10;;;;;;;0.89;100.00;102948.47;2085597;28;20276;-71
2024/01/23 00:45:15;;;;;;;9.90;4.70;;;;;;;0.91;100.00;102950.88;2085776;28;20196;-71
2024/01/23 00:46:15;;;;;;;8.40;4.03;;;;;;;0.43;100.00;102879.75;2086579;28;20288;-71
2024/01/23 00:47:16;;;;;;;10.07;4.77;;;;;;;0.83;100.00;102955.16;2086676;28;20191;-70
2024/01/23 00:48:17;;;;;;;8.77;4.23;;;;;;;0.64;100.00;102930.00;2088356;28;20196;-70
2024/01/23 00:49:17;;;;;;;9.07;4.23;;;;;;;0.70;100.00;102947.03;2086266;28;20231;-71
2024/01/23 00:50:18;;;;;;;12.57;4.90;;;;;;;-0.16;100.00;102814.66;2086780;28;20664;-71
2024/01/23 00:51:18;;;;;;;8.23;4.37;;;;;;;0.56;100.00;102947.09;2086723;28;20200;-71
2024/01/23 00:52:19;;;;;;;8.50;4.30;;;;;;;0.58;100.00;102944.06;2085669;28;20272;-71
2024/01/23 00:53:20;;;;;;;8.00;3.73;;;;;;;-0.33;100.00;102808.22;2085229;28;20183;-71
2024/01/23 00:54:20;;;;;;;8.67;4.60;;;;;;;0.46;100.00;102925.50;2086938;28;20575;-70
2024/01/23 00:55:21;;;;;;;9.53;3.93;;;;;;;0.74;100.00;102939.84;2086492;28;20435;-71
2024/01/23 00:56:21;;;;;;;8.40;3.73;;;;;;;0.63;100.00;102920.19;2086362;28;20278;-71
2024/01/23 00:57:22;;;;;;;11.27;4.47;;;;;;;0.64;100.00;102942.81;2086462;28;20560;-70
2024/01/23 00:58:22;;;;;;;8.17;3.63;;;;;;;0.62;100.00;102936.88;2086421;28;20937;-70
2024/01/23 00:59:23;;;;;;;11.00;4.20;;;;;;;0.63;100.00;102935.75;2085887;28;20238;-71
2024/01/23 01:00:23;;;;;;;9.50;3.57;;;;;;;0.63;100.00;102928.38;2088430;28;20673;-71
2024/01/23 01:01:24;;;;;;;7.17;3.97;;;;;;;0.03;100.00;102839.00;2086558;28;20672;-71
2024/01/23 01:02:24;;;;;;;7.50;3.90;;;;;;;0.33;100.00;102890.94;2085625;28;20271;-70
2024/01/23 01:03:25;;;;;;;8.70;4.50;;;;;;;0.26;100.00;102876.09;2084770;28;20216;-70
2024/01/23 01:04:25;;;;;;;10.33;4.47;;;;;;;0.51;100.00;102921.84;2085893;28;20194;-71
2024/01/23 01:05:26;;;;;;;8.57;3.20;;;;;;;0.54;100.00;102924.78;2086614;28;20195;-70
2024/01/23 01:06:26;;;;;;;9.80;3.60;;;;;;;0.64;100.00;102921.81;2088285;28;20230;-71
2024/01/23 01:07:27;;;;;;;12.17;4.27;;;;;;;0.65;100.00;102923.44;2086640;28;20208;-70
2024/01/23 01:08:27;;;;;;;11.17;4.20;;;;;;;0.62;100.00;102918.56;2085806;28;20200;-71
2024/01/23 01:09:28;;;;;;;11.43;4.93;;;;;;;0.64;100.00;102926.47;2085794;28;20217;-70
2024/01/23 01:10:29;;;;;;;15.67;5.67;;;;;;;0.48;100.00;102897.94;2086293;28;20666;-71
2024/01/23 01:11:29;;;;;;;10.43;4.00;;;;;;;0.62;100.00;102906.88;2086142;28;20193;-71
2024/01/23 01:12:30;;;;;;;12.40;5.03;;;;;;;0.58;100.00;102890.28;2088679;28;20193;-71
2024/01/23 01:13:30;;;;;;;8.20;3.63;;;;;;;0.58;100.00;102917.56;2085327;28;20196;-71
2024/01/23 01:14:32;;;;;;;9.17;4.70;;;;;;;0.53;100.00;102912.25;2085175;28;20184;-71
2024/01/23 01:15:33;;;;;;;10.52;4.20;;;;;;;0.51;100.00;102900.03;2086473;28;20921;-71
2024/01/23 01:16:33;;;;;;;9.27;4.20;;;;;;;0.63;100.00;102903.81;2086466;28;20529;-71
2024/01/23 01:17:34;;;;;;;10.20;4.80;;;;;;;0.69;100.00;102905.31;2085867;28;20587;-70
2024/01/23 01:18:36;;;;;;;9.43;4.53;;;;;;;0.73;100.00;102905.50;2088649;28;20295;-71
2024/01/23 01:19:37;;;;;;;9.40;4.72;;;;;;;0.33;100.00;102836.38;2086696;28;20187;-71
2024/01/23 01:20:37;;;;;;;8.93;3.50;;;;;;;0.07;100.00;102791.72;2086557;28;20661;-71
2024/01/23 01:21:38;;;;;;;9.17;4.53;;;;;;;0.77;100.00;102895.56;2085817;28;20653;-71
2024/01/23 01:22:39;;;;;;;7.33;3.60;;;;;;;0.71;100.00;102896.78;2085437;28;20188;-71
2024/01/23 01:23:40;;;;;;;9.25;4.72;;;;;;;0.69;100.00;102894.41;2085263;28;20264;-71
2024/01/23 01:24:40;;;;;;;9.43;4.50;;;;;;;0.68;100.00;102895.50;2087596;28;20180;-71
2024/01/23 01:25:43;;;;;;;6.90;4.00;;;;;;;0.72;100.00;102896.50;2086218;28;20200;-71
2024/01/23 01:26:44;;;;;;;10.77;4.28;;;;;;;0.79;100.00;102890.59;2085547;28;20279;-71
2024/01/23 01:27:44;;;;;;;10.33;4.50;;;;;;;0.71;100.00;102894.88;2085961;28;20189;-70
2024/01/23 01:28:44;;;;;;;7.57;4.27;;;;;;;0.49;100.00;102858.63;2086187;28;20193;-71
2024/01/23 01:29:45;;;;;;;10.80;4.60;;;;;;;0.80;100.00;102882.09;2086369;28;20212;-71
2024/01/23 01:30:46;;;;;;;10.30;3.97;;;;;;;0.86;100.00;102882.75;2088679;28;20176;-71
2024/01/23 01:31:46;;;;;;;10.90;4.73;;;;;;;0.81;100.00;102880.16;2085425;28;20562;-71
2024/01/23 01:32:47;;;;;;;11.87;5.33;;;;;;;0.82;100.00;102874.41;2084413;28;20290;-71
2024/01/23 01:33:47;;;;;;;9.80;4.37;;;;;;;0.84;100.00;102877.63;2086041;28;20643;-71
2024/01/23 01:34:48;;;;;;;10.77;4.30;;;;;;;0.91;100.00;102869.81;2085800;28;20207;-70
2024/01/23 01:35:51;;;;;;;9.70;4.17;;;;;;;0.92;100.00;102863.22;2085293;28;20303;-70
2024/01/23 01:36:51;;;;;;;10.32;4.35;;;;;;;0.96;100.00;102861.47;2088397;28;20673;-71
2024/01/23 01:37:52;;;;;;;10.63;5.10;;;;;;;0.85;100.00;102835.56;2085825;28;20618;-71
2024/01/23 01:38:53;;;;;;;14.43;4.80;;;;;;;0.99;100.00;102855.38;2086024;28;20188;-71
2024/01/23 01:39:53;;;;;;;10.80;4.43;;;;;;;0.99;100.00;102855.38;2086380;28;20635;-71
2024/01/23 01:40:54;;;;;;;11.27;4.83;;;;;;;0.96;100.00;102842.38;2086325;28;20510;-70
2024/01/23 01:41:55;;;;;;;11.77;4.40;;;;;;;0.31;100.00;102734.16;2086235;28;20325;-70
2024/01/23 01:42:55;;;;;;;9.87;3.73;;;;;;;1.05;100.00;102848.69;2087177;28;20197;-71
2024/01/23 01:43:56;;;;;;;8.63;4.30;;;;;;;1.08;100.00;102856.22;2084728;28;20739;-71
2024/01/23 01:44:56;;;;;;;9.10;4.23;;;;;;;0.21;100.00;102718.06;2084970;28;20203;-70
2024/01/23 01:46:20;;;;;;;8.27;3.43;;;;;;;1.23;100.00;102841.34;2085944;28;20228;-71
2024/01/23 01:47:21;;;;;;;9.48;4.60;;;;;;;0.60;100.00;102746.19;2081410;28;20676;-71
2024/01/23 01:48:23;;;;;;;11.90;5.07;;;;;;;1.23;100.00;102842.16;2086022;28;20636;-70
2024/01/23 01:49:24;;;;;;;7.20;3.67;;;;;;;0.52;100.00;102724.31;2085489;28;20238;-71
2024/01/23 01:50:26;;;;;;;7.53;3.10;;;;;;;1.29;100.00;102840.09;2085763;28;20176;-71
2024/01/23 01:51:29;;;;;;;14.00;4.07;;;;;;;1.17;100.00;102837.13;2088322;28;20250;-70
2024/01/23 01:52:32;;;;;;;9.45;4.50;;;;;;;1.07;100.00;102838.22;2087460;28;20228;-71
2024/01/23 01:53:33;;;;;;;8.95;4.32;;;;;;;1.13;100.00;102831.50;2083909;28;20597;-71
2024/01/23 01:54:35;;;;;;;8.65;4.28;;;;;;;-0.17;100.00;102637.03;2084770;28;20207;-71
2024/01/23 01:55:35;;;;;;;8.70;4.03;;;;;;;1.08;100.00;102828.91;2086020;28;20215;-71
2024/01/23 01:56:37;;;;;;;9.53;4.03;;;;;;;1.10;100.00;102828.59;2085785;28;20233;-70
2024/01/23 01:57:39;;;;;;;10.13;4.40;;;;;;;1.03;100.00;102823.59;2085921;28;20267;-71
2024/01/23 01:58:41;;;;;;;8.00;3.67;;;;;;;1.01;100.00;102830.50;2088439;28;20681;-71
2024/01/23 01:59:42;;;;;;;8.45;4.28;;;;;;;0.67;100.00;102775.75;2085260;28;20193;-71
2024/01/23 02:00:44;;;;;;;8.40;3.95;;;;;;;0.97;100.00;102819.41;2085354;28;20196;-71
2024/01/23 02:01:45;;;;;;;10.35;4.20;;;;;;;0.76;100.00;102828.44;2086086;28;20192;-71
2024/01/23 02:02:50;;;;;;;7.32;3.78;;;;;;;0.02;100.00;102731.88;2085700;28;20202;-71
2024/01/23 02:03:50;;;;;;;10.90;5.03;;;;;;;0.83;100.00;102815.16;2084696;28;20215;-71
2024/01/23 02:04:51;;;;;;;11.83;4.47;;;;;;;0.85;100.00;102823.84;2085868;28;20183;-70
2024/01/23 02:05:51;;;;;;;6.43;3.63;;;;;;;0.76;100.00;102818.34;2086809;28;20222;-71
2024/01/23 02:06:52;;;;;;;8.37;4.07;;;;;;;0.83;100.00;102824.13;2085272;28;20255;-70
2024/01/23 02:07:53;;;;;;;8.77;3.80;;;;;;;0.95;100.00;102813.47;2085378;28;20644;-71
2024/01/23 02:08:54;;;;;;;7.70;3.73;;;;;;;0.94;100.00;102814.56;2085142;28;20195;-71
2024/01/23 02:09:55;;;;;;;7.53;3.85;;;;;;;0.89;100.00;102817.41;2084964;28;20565;-70
2024/01/23 02:10:55;;;;;;;9.43;3.40;;;;;;;0.85;100.00;102813.72;2086634;28;20199;-71
2024/01/23 02:11:57;;;;;;;9.13;4.07;;;;;;;0.82;100.00;102817.06;2088044;28;20190;-71
2024/01/23 02:12:58;;;;;;;9.55;3.75;;;;;;;-0.07;100.00;102690.16;2085040;28;20611;-71
2024/01/23 02:13:58;;;;;;;8.63;3.63;;;;;;;0.71;100.00;102810.28;2085373;28;20196;-71
2024/01/23 02:14:59;;;;;;;7.40;4.30;;;;;;;0.64;100.00;102803.66;2084572;28;20197;-71
2024/01/23 02:15:59;;;;;;;7.43;3.33;;;;;;;-0.03;100.00;102685.69;2085435;28;20188;-71
2024/01/23 02:17:00;;;;;;;8.37;3.07;;;;;;;0.72;100.00;102803.69;2086376;28;20184;-70
2024/01/23 02:18:01;;;;;;;8.67;3.83;;;;;;;-0.31;100.00;102628.91;2086767;28;20196;-71
2024/01/23 02:19:01;;;;;;;8.37;4.50;;;;;;;0.42;100.00;102741.75;2085614;28;20180;-71
2024/01/23 02:20:05;;;;;;;9.13;4.10;;;;;;;0.81;100.00;102790.09;2086252;28;20982;-71
2024/01/23 02:21:07;;;;;;;8.05;4.00;;;;;;;0.69;100.00;102801.63;2086531;28;20257;-71
2024/01/23 02:22:08;;;;;;;8.45;3.78;;;;;;;0.59;100.00;102795.59;2086070;28;20268;-71
2024/01/23 02:23:16;;;;;;;11.10;4.27;;;;;;;0.64;100.00;102806.38;2084593;28;20199;-71
2024/01/23 02:24:16;;;;;;;7.25;3.75;;;;;;;0.64;100.00;102792.75;2084904;28;20188;-71
2024/01/23 02:25:16;;;;;;;9.67;4.07;;;;;;;0.49;100.00;102798.59;2086162;28;20196;-70
2024/01/23 02:26:17;;;;;;;8.03;3.53;;;;;;;0.56;100.00;102797.03;2085009;28;20245;-71
2024/01/23 02:27:17;;;;;;;7.97;3.53;;;;;;;0.61;100.00;102783.25;2086089;28;20188;-71
2024/01/23 02:28:18;;;;;;;13.83;3.93;;;;;;;0.62;100.00;102786.81;2085288;28;20195;-71
2024/01/23 02:29:18;;;;;;;10.13;3.63;;;;;;;0.66;100.00;102771.41;2084842;28;20211;-71
2024/01/23 02:30:19;;;;;;;9.80;4.00;;;;;;;0.82;100.00;102775.34;2086977;28;20180;-71
2024/01/23 02:31:19;;;;;;;8.60;4.13;;;;;;;0.73;100.00;102742.53;2086857;28;20285;-71
2024/01/23 02:32:20;;;;;;;11.17;4.93;;;;;;;1.01;100.00;102770.41;2085163;28;20730;-71
2024/01/23 02:33:21;;;;;;;8.33;4.30;;;;;;;1.00;100.00;102757.91;2085320;28;20347;-71
2024/01/23 02:34:21;;;;;;;10.23;4.67;;;;;;;1.12;100.00;102774.47;2085233;28;20192;-71
2024/01/23 02:35:22;;;;;;;10.27;3.47;;;;;;;1.07;100.00;102766.41;2085993;28;20247;-71
2024/01/23 02:36:22;;;;;;;6.87;3.37;;;;;;;0.95;100.00;102767.03;2087769;28;20183;-71
2024/01/23 02:37:23;;;;;;;8.63;3.50;;;;;;;0.91;100.00;102763.34;2086433;28;20191;-71
2024/01/23 02:38:23;;;;;;;8.30;3.10;;;;;;;0.91;100.00;102763.34;2086010;28;20207;-71
2024/01/23 02:39:25;;;;;;;9.90;4.13;;;;;;;0.84;100.00;102754.00;2085191;28;20567;-71
2024/01/23 02:40:26;;;;;;;7.32;3.53;;;;;;;-0.30;100.00;102585.00;2085527;28;20192;-71
2024/01/23 02:41:27;;;;;;;7.13;3.53;;;;;;;0.75;100.00;102756.69;2086103;28;20630;-71
2024/01/23 02:42:27;;;;;;;7.37;3.80;;;;;;;0.75;100.00;102743.03;2087251;28;20192;-71
2024/01/23 02:43:28;;;;;;;8.27;4.30;;;;;;;0.80;100.00;102753.81;2086254;28;20275;-71
2024/01/23 02:44:28;;;;;;;9.73;4.20;;;;;;;0.54;100.00;102702.97;2084412;28;20195;-71
2024/01/23 02:45:29;;;;;;;8.10;3.43;;;;;;;0.73;100.00;102737.06;2085317;28;20853;-71
2024/01/23 02:46:29;;;;;;;6.33;3.87;;;;;;;0.86;100.00;102754.47;2085647;28;20574;-70
2024/01/23 02:47:30;;;;;;;7.27;3.03;;;;;;;0.86;100.00;102749.81;2085661;28;20720;-71
2024/01/23 02:48:30;;;;;;;7.47;3.33;;;;;;;0.24;100.00;102669.16;2087921;28;20237;-71
2024/01/23 02:49:32;;;;;;;7.77;3.40;;;;;;;0.93;100.00;102747.44;2085260;28;20235;-71
2024/01/23 02:50:33;;;;;;;9.60;2.88;;;;;;;0.89;100.00;102748.38;2085316;28;20196;-71
2024/01/23 02:51:33;;;;;;;7.93;3.87;;;;;;;0.83;100.00;102744.97;2085925;28;20195;-71
2024/01/23 02:52:34;;;;;;;8.73;4.07;;;;;;;0.04;100.00;102634.25;2085650;28;20269;-71
2024/01/23 02:53:35;;;;;;;6.82;3.80;;;;;;;0.85;100.00;102736.47;2083758;28;20192;-71
2024/01/23 02:54:35;;;;;;;10.07;3.70;;;;;;;0.83;100.00;102739.53;2087146;28;20199;-71
2024/01/23 02:55:36;;;;;;;7.97;3.53;;;;;;;0.89;100.00;102740.19;2086496;28;20235;-71
2024/01/23 02:56:36;;;;;;;6.30;3.67;;;;;;;0.86;100.00;102740.81;2087082;28;20197;-71
2024/01/23 02:57:37;;;;;;;7.47;3.30;;;;;;;0.78;100.00;102731.47;2086884;28;20192;-71
2024/01/23 02:58:41;;;;;;;8.23;3.73;;;;;;;0.85;100.00;102744.66;2087740;28;20208;-71
2024/01/23 02:59:42;;;;;;;9.27;3.78;;;;;;;0.85;100.00;102736.47;2086135;28;20173;-71
2024/01/23 03:00:42;;;;;;;10.17;3.60;;;;;;;0.86;100.00;102740.81;2088025;28;20184;-71
2024/01/23 03:01:43;;;;;;;11.33;4.00;;;;;;;0.85;100.00;102736.47;2089343;28;20632;-71
2024/01/23 03:02:45;;;;;;;7.67;3.70;;;;;;;0.39;100.00;102671.47;2086256;28;20658;-71
2024/01/23 03:03:46;;;;;;;10.20;3.65;;;;;;;0.62;100.00;102737.69;2086862;28;20254;-71
2024/01/23 03:04:46;;;;;;;5.43;3.10;;;;;;;0.66;100.00;102744.09;2085367;28;20283;-71
2024/01/23 03:05:47;;;;;;;6.63;3.57;;;;;;;0.52;100.00;102727.06;2086395;28;20188;-71
2024/01/23 03:06:47;;;;;;;6.20;3.13;;;;;;;0.53;100.00;102721.25;2087506;28;20187;-71
2024/01/23 03:07:50;;;;;;;10.57;3.70;;;;;;;0.57;100.00;102730.44;2088847;28;20184;-71
2024/01/23 03:08:50;;;;;;;7.70;3.40;;;;;;;0.23;100.00;102659.38;2087164;28;20657;-71
2024/01/23 03:09:52;;;;;;;10.20;3.63;;;;;;;0.56;100.00;102723.38;2087002;28;20610;-71
2024/01/23 03:10:53;;;;;;;10.98;4.50;;;;;;;0.51;100.00;102723.50;2087807;28;20202;-70
2024/01/23 03:11:54;;;;;;;4.97;2.90;;;;;;;-0.22;100.00;102599.78;2087450;28;20195;-71
2024/01/23 03:12:54;;;;;;;8.40;3.13;;;;;;;0.40;100.00;102714.00;2085922;28;20293;-71
2024/01/23 03:13:55;;;;;;;8.87;4.43;;;;;;;-0.17;100.00;102627.72;2087828;28;20715;-71
2024/01/23 03:14:55;;;;;;;7.33;3.77;;;;;;;0.22;100.00;102750.44;2086137;28;20200;-71
2024/01/23 03:15:56;;;;;;;7.57;3.70;;;;;;;0.27;100.00;102720.31;2086410;28;20219;-71
2024/01/23 03:16:56;;;;;;;9.70;3.77;;;;;;;0.25;100.00;102705.41;2085923;28;20220;-71
2024/01/23 03:17:58;;;;;;;10.00;4.10;;;;;;;0.10;100.00;102692.16;2093842;28;20252;-71
2024/01/23 03:18:59;;;;;;;9.05;4.13;;;;;;;0.13;100.00;102713.34;2094709;28;20180;-71
2024/01/23 03:19:59;;;;;;;9.87;4.50;;;;;;;0.10;100.00;102712.06;2089468;28;20278;-71
2024/01/23 03:21:00;;;;;;;11.03;3.33;;;;;;;0.16;100.00;102712.75;2087178;28;20188;-71
2024/01/23 03:22:00;;;;;;;10.40;4.03;;;;;;;0.19;100.00;102712.09;2086445;28;20196;-71
2024/01/23 03:23:01;;;;;;;9.03;2.90;;;;;;;-1.18;100.00;102508.00;2085779;28;20184;-71
2024/01/23 03:24:01;;;;;;;7.10;4.23;;;;;;;0.03;100.00;102710.88;2086822;28;20677;-70
2024/01/23 03:25:02;;;;;;;8.87;3.27;;;;;;;-0.98;100.00;102575.56;2086426;28;20259;-71
2024/01/23 03:26:03;;;;;;;10.03;4.33;;;;;;;-0.08;100.00;102720.44;2088488;28;20669;-71
2024/01/23 03:27:06;;;;;;;6.70;3.30;;;;;;;-0.22;100.00;102709.59;2085936;28;20234;-70
2024/01/23 03:28:07;;;;;;;10.60;3.40;;;;;;;-0.18;100.00;102712.50;2086979;28;20187;-71
2024/01/23 03:29:09;;;;;;;9.23;4.27;;;;;;;-0.21;100.00;102713.13;2086837;28;20704;-71
2024/01/23 03:30:26;;;;;;;8.65;3.47;;;;;;;-0.01;100.00;102710.72;2086715;28;20215;-71
2024/01/23 03:31:27;;;;;;;7.85;3.92;;;;;;;-0.02;100.00;102709.09;2087747;28;20190;-71
2024/01/23 03:32:27;;;;;;;9.37;4.37;;;;;;;0.05;100.00;102711.38;2087381;28;20215;-71
2024/01/23 03:33:28;;;;;;;6.60;3.37;;;;;;;0.09;100.00;102713.19;2086594;28;20191;-70
2024/01/23 03:34:31;;;;;;;7.07;4.17;;;;;;;0.07;100.00;102703.69;2087979;28;20267;-71
2024/01/23 03:35:32;;;;;;;12.02;4.82;;;;;;;-0.02;100.00;102681.84;2086852;28;20638;-71
2024/01/23 03:36:32;;;;;;;11.17;4.00;;;;;;;0.04;100.00;102715.22;2086763;28;20188;-70
2024/01/23 03:37:33;;;;;;;7.27;3.67;;;;;;;-1.12;100.00;102550.31;2087198;28;20199;-70
2024/01/23 03:38:33;;;;;;;9.63;4.07;;;;;;;-0.35;100.00;102698.75;2086674;28;20271;-70
2024/01/23 03:39:34;;;;;;;8.23;4.50;;;;;;;-0.99;100.00;102600.38;2086853;28;20181;-70
2024/01/23 03:40:35;;;;;;;7.15;3.67;;;;;;;-0.23;100.00;102720.81;2088948;28;20744;-70
2024/01/23 03:41:37;;;;;;;8.97;3.53;;;;;;;-0.27;100.00;102717.91;2086455;28;20534;-70
2024/01/23 03:42:37;;;;;;;8.35;4.20;;;;;;;-0.60;100.00;102688.47;2086875;28;20568;-71
2024/01/23 03:43:38;;;;;;;6.47;3.47;;;;;;;-0.49;100.00;102719.78;2086308;28;20198;-70
2024/01/23 03:44:38;;;;;;;9.67;3.93;;;;;;;-0.41;100.00;102719.03;2086306;28;20180;-71
2024/01/23 03:45:39;;;;;;;10.00;4.20;;;;;;;-0.43;100.00;102719.38;2087054;28;20237;-71
2024/01/23 03:46:39;;;;;;;9.33;3.97;;;;;;;-0.41;100.00;102719.88;2088822;28;20188;-71
2024/01/23 03:47:40;;;;;;;7.53;3.77;;;;;;;-0.86;100.00;102633.00;2086945;28;20196;-71
2024/01/23 03:48:40;;;;;;;6.50;3.57;;;;;;;-0.30;100.00;102717.72;2086764;28;20192;-71
2024/01/23 03:49:41;;;;;;;10.20;3.97;;;;;;;-0.20;100.00;102718.25;2085828;28;20320;-71
2024/01/23 03:50:41;;;;;;;7.53;3.90;;;;;;;-0.15;100.00;102725.53;2086969;28;20199;-71
2024/01/23 03:51:42;;;;;;;10.43;4.60;;;;;;;-0.19;100.00;102716.34;2086244;28;20176;-70
2024/01/23 03:52:43;;;;;;;11.63;4.93;;;;;;;-1.16;100.00;102579.25;2088350;28;20566;-71
2024/01/23 03:53:43;;;;;;;5.33;3.10;;;;;;;0.01;100.00;102724.81;2086046;28;20192;-71
2024/01/23 03:54:44;;;;;;;10.73;4.10;;;;;;;0.05;100.00;102719.56;2085987;28;20235;-71
2024/01/23 03:55:44;;;;;;;12.10;4.67;;;;;;;0.08;100.00;102717.03;2085254;28;20259;-71
2024/01/23 03:56:45;;;;;;;9.33;3.97;;;;;;;0.11;100.00;102719.13;2086390;28;20191;-71
2024/01/23 03:57:45;;;;;;;7.20;3.63;;;;;;;0.09;100.00;102721.34;2085621;28;20187;-71
2024/01/23 03:58:46;;;;;;;8.37;4.50;;;;;;;0.15;100.00;102722.00;2088599;28;20607;-71
2024/01/23 03:59:47;;;;;;;14.67;4.20;;;;;;;0.13;100.00;102714.19;2086484;28;20226;-71
2024/01/23 04:00:47;;;;;;;7.30;3.13;;;;;;;-0.88;100.00;102569.09;2085212;28;20668;-71
2024/01/23 04:01:48;;;;;;;7.77;3.43;;;;;;;0.11;100.00;102730.03;2085807;28;20205;-71
2024/01/23 04:02:48;;;;;;;9.40;3.87;;;;;;;0.01;100.00;102713.91;2086017;28;20661;-71
2024/01/23 04:03:49;;;;;;;9.83;3.73;;;;;;;-0.60;100.00;102631.28;2086411;28;20730;-71
2024/01/23 04:04:49;;;;;;;10.77;3.47;;;;;;;-0.14;100.00;102722.47;2087218;28;20219;-71
2024/01/23 04:05:50;;;;;;;6.87;3.23;;;;;;;-0.08;100.00;102723.97;2086397;28;20196;-71
2024/01/23 04:06:50;;;;;;;9.10;4.40;;;;;;;-0.04;100.00;102724.94;2085391;28;20254;-71
2024/01/23 04:07:51;;;;;;;10.03;3.50;;;;;;;0.01;100.00;102730.28;2085536;28;20279;-71
2024/01/23 04:08:51;;;;;;;9.03;4.00;;;;;;;-0.05;100.00;102722.56;2085880;28;20207;-71
2024/01/23 04:09:52;;;;;;;9.10;3.80;;;;;;;-0.88;100.00;102585.41;2087375;28;20180;-71
2024/01/23 04:10:52;;;;;;;8.03;3.53;;;;;;;-0.19;100.00;102708.19;2087075;28;20231;-71
2024/01/23 04:11:53;;;;;;;5.87;3.30;;;;;;;-0.04;100.00;102724.16;2085524;28;20196;-71
2024/01/23 04:12:53;;;;;;;9.17;4.23;;;;;;;-0.17;100.00;102724.22;2084875;28;20257;-71
2024/01/23 04:13:54;;;;;;;6.07;3.10;;;;;;;-0.10;100.00;102722.69;2086131;28;20196;-71
2024/01/23 04:14:54;;;;;;;8.23;3.63;;;;;;;-0.07;100.00;102724.78;2085652;28;20341;-71
2024/01/23 04:15:54;;;;;;;7.60;3.43;;;;;;;-0.10;100.00;102728.13;2088367;28;20282;-71
2024/01/23 04:16:55;;;;;;;9.43;4.13;;;;;;;-0.05;100.00;102728.00;2085471;28;20211;-71
2024/01/23 04:17:56;;;;;;;9.43;3.37;;;;;;;-0.13;100.00;102739.63;2086464;28;20940;-71
2024/01/23 04:18:56;;;;;;;7.50;3.03;;;;;;;-0.12;100.00;102720.25;2086623;28;20659;-71
2024/01/23 04:19:57;;;;;;;6.97;3.13;;;;;;;-0.08;100.00;102721.25;2086631;28;20212;-71
2024/01/23 04:20:58;;;;;;;7.17;3.03;;;;;;;-0.21;100.00;102700.31;2086561;28;20658;-71
2024/01/23 04:21:58;;;;;;;7.80;3.63;;;;;;;-0.03;100.00;102726.59;2088494;28;20689;-71
2024/01/23 04:22:59;;;;;;;7.47;2.90;;;;;;;-0.02;100.00;102727.38;2084944;28;20184;-71
2024/01/23 04:24:00;;;;;;;7.97;3.50;;;;;;;-0.03;100.00;102723.03;2085731;28;20185;-71
2024/01/23 04:25:00;;;;;;;6.90;3.20;;;;;;;-0.14;100.00;102713.50;2085044;28;20262;-71
2024/01/23 04:26:01;;;;;;;7.33;3.50;;;;;;;-0.32;100.00;102736.28;2086622;28;20308;-71
2024/01/23 04:27:04;;;;;;;8.95;4.20;;;;;;;-1.10;100.00;102591.63;2084922;28;20307;-71
2024/01/23 04:28:04;;;;;;;11.15;3.47;;;;;;;-0.63;100.00;102665.38;2088274;28;20558;-71
2024/01/23 04:29:05;;;;;;;11.47;4.07;;;;;;;-0.28;100.00;102738.09;2086947;28;20318;-71
2024/01/23 04:30:06;;;;;;;6.83;3.43;;;;;;;-0.25;100.00;102714.88;2085627;28;20188;-71
2024/01/23 04:31:07;;;;;;;7.43;3.70;;;;;;;-0.20;100.00;102728.38;2086593;28;20709;-71
2024/01/23 04:32:07;;;;;;;5.93;3.03;;;;;;;-0.14;100.00;102722.47;2086767;28;20625;-71
2024/01/23 04:33:08;;;;;;;7.77;3.50;;;;;;;-0.27;100.00;102715.19;2084264;28;20616;-71
2024/01/23 04:34:09;;;;;;;9.70;4.23;;;;;;;-0.22;100.00;102731.41;2087722;28;20603;-71
2024/01/23 04:35:09;;;;;;;8.63;3.87;;;;;;;-1.46;100.00;102530.97;2086790;28;20192;-71
2024/01/23 04:36:11;;;;;;;10.53;3.53;;;;;;;-0.21;100.00;102734.91;2086569;28;20296;-71
2024/01/23 04:37:11;;;;;;;8.73;3.97;;;;;;;-0.19;100.00;102729.97;2085491;28;20184;-71
2024/01/23 04:38:12;;;;;;;5.10;3.40;;;;;;;-0.85;100.00;102626.44;2085281;28;20399;-71
2024/01/23 04:39:12;;;;;;;7.57;3.13;;;;;;;-0.34;100.00;102693.00;2085509;28;20195;-71
2024/01/23 04:40:13;;;;;;;10.03;4.47;;;;;;;-0.01;100.00;102731.69;2088318;28;20698;-71
2024/01/23 04:41:14;;;;;;;10.00;4.17;;;;;;;-0.05;100.00;102736.97;2086687;28;20224;-71